createdAt,value
2023-04-18T00:01:05.788Z,93.60
2023-04-18T00:03:33.179Z,93.01
2023-04-18T00:06:00.581Z,92.80
2023-04-18T00:08:27.729Z,91.94
2023-04-18T00:10:56.330Z,93.21
2023-04-18T00:13:23.483Z,94.44
2023-04-18T00:15:50.736Z,95.00
2023-04-18T00:18:17.895Z,95.42
2023-04-18T00:20:45.413Z,93.22
2023-04-18T00:23:13.435Z,93.50
2023-04-18T00:25:40.748Z,93.12
2023-04-18T00:28:09.254Z,93.42
2023-04-18T00:30:36.520Z,94.39
2023-04-18T00:33:05.108Z,95.75
2023-04-18T00:35:32.383Z,96.39
2023-04-18T00:37:59.547Z,96.08
2023-04-18T00:40:26.843Z,95.71
2023-04-18T00:42:54.195Z,94.69
2023-04-18T00:45:22.863Z,93.89
2023-04-18T00:47:50.108Z,94.19
2023-04-18T00:50:18.154Z,94.23
2023-04-18T00:52:46.557Z,94.65
2023-04-18T00:55:13.819Z,94.45
2023-04-18T00:57:42.178Z,94.24
2023-04-18T01:00:10.242Z,94.30
2023-04-18T01:02:39.409Z,94.20
2023-04-18T01:05:08.014Z,93.79
2023-04-18T01:07:37.788Z,94.71
2023-04-18T01:10:06.064Z,94.80
2023-04-18T01:12:33.271Z,94.54
2023-04-18T01:15:00.486Z,94.83
2023-04-18T01:17:29.179Z,95.22
2023-04-18T01:19:57.660Z,96.91
2023-04-18T01:22:26.697Z,96.71
2023-04-18T01:24:55.237Z,95.96
2023-04-18T01:27:22.505Z,94.90
2023-04-18T01:29:49.669Z,94.42
2023-04-18T01:32:16.846Z,93.75
2023-04-18T01:34:45.733Z,93.37
2023-04-18T01:37:12.940Z,93.10
2023-04-18T01:39:40.633Z,92.67
2023-04-18T01:42:09.187Z,92.15
2023-04-18T01:44:37.955Z,92.40
2023-04-18T01:47:05.612Z,92.78
2023-04-18T01:49:33.329Z,93.46
2023-04-18T01:52:00.539Z,93.78
2023-04-18T01:54:27.772Z,94.24
2023-04-18T01:56:54.922Z,95.75
2023-04-18T01:59:24.044Z,96.30
2023-04-18T02:01:51.260Z,96.08
2023-04-18T02:04:18.569Z,96.59
2023-04-18T02:06:47.188Z,96.87
2023-04-18T02:09:14.376Z,97.49
2023-04-18T02:11:43.426Z,97.35
2023-04-18T02:14:10.717Z,96.16
2023-04-18T02:16:39.302Z,95.33
2023-04-18T02:19:06.577Z,95.23
2023-04-18T02:21:34.640Z,95.24
2023-04-18T02:24:01.830Z,96.44
2023-04-18T02:26:29.019Z,96.75
2023-04-18T02:28:58.146Z,97.17
2023-04-18T02:31:25.493Z,97.31
2023-04-18T02:33:54.057Z,98.23
2023-04-18T02:36:22.194Z,98.74
2023-04-18T02:38:49.370Z,98.74
2023-04-18T02:41:16.525Z,98.78
2023-04-18T02:43:43.701Z,98.48
2023-04-18T02:46:10.975Z,98.28
2023-04-18T02:48:38.242Z,97.90
2023-04-18T02:51:08.479Z,97.69
2023-04-18T02:53:37.762Z,97.90
2023-04-18T02:56:05.829Z,98.03
2023-04-18T02:58:55.551Z,98.00
2023-04-18T03:01:40.789Z,97.97
2023-04-18T03:04:11.560Z,97.65
2023-04-18T03:06:44.418Z,97.50
2023-04-18T03:09:11.722Z,97.29
2023-04-18T03:11:44.997Z,97.36
2023-04-18T03:14:12.786Z,97.07
2023-04-18T03:16:46.287Z,97.06
2023-04-18T03:19:16.707Z,97.07
2023-04-18T03:21:45.392Z,96.99
2023-04-18T03:24:12.826Z,96.69
2023-04-18T03:26:41.615Z,96.57
2023-04-18T03:29:09.216Z,96.65
2023-04-18T03:31:36.528Z,96.08
2023-04-18T03:34:03.887Z,95.87
2023-04-18T03:36:31.235Z,95.60
2023-04-18T03:39:00.753Z,94.69
2023-04-18T03:41:28.048Z,95.15
2023-04-18T03:43:57.574Z,95.66
2023-04-18T03:46:24.970Z,96.12
2023-04-18T03:48:54.546Z,96.41
2023-04-18T03:51:22.126Z,96.58
2023-04-18T03:53:49.282Z,93.45
2023-04-18T03:56:19.142Z,91.98
2023-04-18T03:58:55.031Z,92.22
2023-04-18T04:01:22.993Z,93.24
2023-04-18T04:03:52.329Z,95.12
2023-04-18T04:06:20.068Z,96.31
2023-04-18T04:08:47.234Z,96.81
2023-04-18T04:11:19.894Z,97.00
2023-04-18T04:13:47.254Z,96.54
2023-04-18T04:16:17.138Z,96.63
2023-04-18T04:18:45.247Z,96.65
2023-04-18T04:21:13.367Z,96.64
2023-04-18T04:23:48.380Z,96.50
2023-04-18T04:26:31.388Z,96.11
2023-04-18T04:29:03.688Z,95.78
2023-04-18T04:31:32.562Z,95.68
2023-04-18T04:33:59.793Z,95.39
2023-04-18T04:36:27.209Z,95.30
2023-04-18T04:38:56.494Z,95.51
2023-04-18T04:41:33.417Z,95.55
2023-04-18T04:44:00.661Z,95.37
2023-04-18T04:46:31.297Z,95.26
2023-04-18T04:49:00.267Z,95.65
2023-04-18T04:51:27.484Z,96.10
2023-04-18T04:53:55.077Z,95.57
2023-04-18T04:56:23.030Z,95.45
2023-04-18T04:58:51.937Z,95.51
2023-04-18T05:01:25.212Z,95.70
2023-04-18T05:03:52.638Z,95.44
2023-04-18T05:06:20.146Z,95.37
2023-04-18T05:08:47.600Z,94.62
2023-04-18T05:11:15.261Z,94.30
2023-04-18T05:13:42.683Z,94.09
2023-04-18T05:16:11.434Z,94.04
2023-04-18T05:18:38.691Z,93.55
2023-04-18T05:21:05.934Z,94.45
2023-04-18T05:23:33.649Z,93.65
2023-04-18T05:26:00.856Z,92.80
2023-04-18T05:28:28.024Z,92.47
2023-04-18T05:30:55.264Z,91.83
2023-04-18T05:33:23.879Z,91.64
2023-04-18T05:35:51.084Z,90.87
2023-04-18T05:38:18.286Z,90.56
2023-04-18T05:40:45.446Z,89.90
2023-04-18T05:43:12.832Z,89.14
2023-04-18T05:45:40.052Z,88.21
2023-04-18T05:48:07.238Z,87.86
2023-04-18T05:50:35.773Z,87.71
2023-04-18T05:53:03.015Z,87.54
2023-04-18T05:55:30.192Z,87.34
2023-04-18T05:57:57.367Z,86.94
2023-04-18T06:00:24.646Z,86.03
2023-04-18T06:02:52.028Z,85.72
2023-04-18T06:05:19.866Z,85.72
2023-04-18T06:07:48.752Z,85.03
2023-04-18T06:10:15.978Z,84.73
2023-04-18T06:12:43.154Z,84.29
2023-04-18T06:15:11.513Z,83.68
2023-04-18T06:17:38.945Z,82.66
2023-04-18T06:20:07.046Z,81.51
2023-04-18T06:22:34.240Z,81.91
2023-04-18T06:25:02.768Z,81.64
2023-04-18T06:27:31.844Z,81.91
2023-04-18T06:29:59.461Z,81.96
2023-04-18T06:32:26.786Z,82.07
2023-04-18T06:34:53.970Z,81.58
2023-04-18T06:37:21.259Z,81.29
2023-04-18T06:39:48.419Z,79.64
2023-04-18T06:42:16.956Z,79.15
2023-04-18T06:44:48.298Z,77.94
2023-04-18T06:47:16.072Z,77.31
2023-04-18T06:49:43.307Z,77.26
2023-04-18T06:52:10.605Z,76.17
2023-04-18T06:54:37.757Z,75.81
2023-04-18T06:57:05.077Z,76.57
2023-04-18T06:59:33.614Z,75.29
2023-04-18T07:02:00.786Z,74.77
2023-04-18T07:04:27.985Z,74.08
2023-04-18T07:06:55.274Z,72.93
2023-04-18T07:09:22.485Z,73.00
2023-04-18T07:11:49.912Z,74.31
2023-04-18T07:14:17.187Z,75.31
2023-04-18T07:16:45.905Z,75.38
2023-04-18T07:19:13.166Z,74.05
2023-04-18T07:21:40.378Z,73.74
2023-04-18T07:24:07.876Z,73.14
2023-04-18T07:26:35.372Z,73.09
2023-04-18T07:29:02.685Z,72.89
2023-04-18T07:31:29.951Z,72.02
2023-04-18T07:33:58.524Z,71.85
2023-04-18T07:36:25.819Z,72.16
2023-04-18T07:38:53.020Z,71.78
2023-04-18T07:41:20.178Z,71.55
2023-04-18T07:43:47.520Z,72.96
2023-04-18T07:46:14.799Z,70.81
2023-04-18T07:48:41.997Z,71.58
2023-04-18T07:51:11.079Z,71.11
2023-04-18T07:53:38.320Z,70.33
2023-04-18T07:56:05.615Z,70.62
2023-04-18T07:58:33.948Z,71.04
2023-04-18T08:01:01.137Z,70.22
2023-04-18T08:03:28.555Z,68.42
2023-04-18T08:05:56.093Z,68.51
2023-04-18T08:08:24.671Z,66.88
2023-04-18T08:10:51.823Z,66.16
2023-04-18T08:13:19.505Z,67.28
2023-04-18T08:15:47.526Z,65.48
2023-04-18T08:18:15.061Z,66.53
2023-04-18T08:20:43.706Z,67.11
2023-04-18T08:23:13.210Z,67.49
2023-04-18T08:25:42.930Z,65.92
2023-04-18T08:28:10.793Z,66.43
2023-04-18T08:30:38.553Z,66.87
2023-04-18T08:33:06.391Z,66.68
2023-04-18T08:35:34.672Z,66.16
2023-04-18T08:38:02.321Z,65.49
2023-04-18T08:40:30.072Z,63.54
2023-04-18T08:43:02.057Z,64.62
2023-04-18T08:45:29.949Z,63.23
2023-04-18T08:47:57.693Z,64.27
2023-04-18T08:50:25.063Z,63.54
2023-04-18T08:52:54.925Z,64.03
2023-04-18T08:55:22.829Z,62.55
2023-04-18T08:57:50.342Z,65.92
2023-04-18T09:00:20.062Z,63.36
2023-04-18T09:02:47.888Z,63.18
2023-04-18T09:05:17.581Z,60.02
2023-04-18T09:07:46.198Z,63.06
2023-04-18T09:10:24.546Z,63.22
2023-04-18T09:12:52.533Z,62.14
2023-04-18T09:15:23.575Z,61.41
2023-04-18T09:17:51.954Z,63.80
2023-04-18T09:20:30.860Z,63.53
2023-04-18T09:22:58.353Z,60.68
2023-04-18T09:25:27.686Z,60.89
2023-04-18T09:27:56.117Z,62.13
2023-04-18T09:30:32.770Z,61.70
2023-04-18T09:33:06.619Z,61.36
2023-04-18T09:35:41.278Z,61.79
2023-04-18T09:38:13.728Z,62.74
2023-04-18T09:41:08.520Z,63.33
2023-04-18T09:43:48.739Z,62.29
2023-04-18T09:46:19.216Z,61.04
2023-04-18T09:48:48.812Z,62.40
2023-04-18T09:51:24.926Z,62.73
2023-04-18T09:54:02.566Z,63.72
2023-04-18T09:56:41.563Z,61.81
2023-04-18T09:59:29.672Z,63.30
2023-04-18T10:02:19.381Z,61.15
2023-04-18T10:04:50.461Z,61.69
2023-04-18T10:07:26.782Z,62.16
2023-04-18T10:09:56.980Z,62.72
2023-04-18T10:12:28.377Z,61.81
2023-04-18T10:15:00.070Z,62.27
2023-04-18T10:17:36.334Z,61.72
2023-04-18T10:20:17.495Z,61.81
2023-04-18T10:22:45.707Z,62.03
2023-04-18T10:25:13.213Z,60.48
2023-04-18T10:28:00.112Z,61.79
2023-04-18T10:30:52.244Z,59.31
2023-04-18T10:33:31.831Z,57.43
2023-04-18T10:36:01.719Z,57.29
2023-04-18T10:38:31.511Z,57.37
2023-04-18T10:41:29.987Z,55.65
2023-04-18T10:44:19.714Z,55.69
2023-04-18T10:47:21.758Z,53.97
2023-04-18T10:49:57.623Z,54.85
2023-04-18T10:52:26.411Z,55.88
2023-04-18T10:55:05.255Z,56.62
2023-04-18T10:57:40.791Z,56.48
2023-04-18T11:00:10.784Z,57.90
2023-04-18T11:02:39.242Z,57.27
2023-04-18T11:05:09.492Z,56.86
2023-04-18T11:07:39.962Z,57.07
2023-04-18T11:10:09.121Z,57.70
2023-04-18T11:12:38.442Z,58.64
2023-04-18T11:15:11.561Z,57.32
2023-04-18T11:17:40.299Z,57.23
2023-04-18T11:20:11.384Z,58.43
2023-04-18T11:22:46.835Z,56.67
2023-04-18T11:25:14.398Z,56.61
2023-04-18T11:27:42.641Z,56.04
2023-04-18T11:30:10.916Z,56.86
2023-04-18T11:32:38.199Z,57.17
2023-04-18T11:35:10.325Z,56.21
2023-04-18T11:37:38.842Z,55.88
2023-04-18T11:40:09.622Z,56.30
2023-04-18T11:42:39.226Z,58.56
2023-04-18T11:45:10.137Z,57.02
2023-04-18T11:47:37.389Z,57.98
2023-04-18T11:50:06.436Z,57.41
2023-04-18T11:52:36.270Z,56.88
2023-04-18T11:55:14.233Z,56.14
2023-04-18T11:57:41.623Z,57.22
2023-04-18T12:00:10.591Z,57.89
2023-04-18T12:02:42.958Z,57.47
2023-04-18T12:05:11.131Z,57.29
2023-04-18T12:07:41.942Z,56.53
2023-04-18T12:10:28.190Z,56.38
2023-04-18T12:12:57.137Z,55.49
2023-04-18T12:15:25.465Z,56.17
2023-04-18T12:17:57.957Z,57.33
2023-04-18T12:20:25.462Z,57.04
2023-04-18T12:22:53.995Z,57.57
2023-04-18T12:25:27.082Z,56.25
2023-04-18T12:27:59.157Z,58.70
2023-04-18T12:30:28.139Z,59.79
2023-04-18T12:32:57.494Z,59.85
2023-04-18T12:35:25.659Z,60.08
2023-04-18T12:37:55.952Z,59.30
2023-04-18T12:40:24.069Z,59.48
2023-04-18T12:42:51.343Z,59.34
2023-04-18T12:45:20.278Z,59.71
2023-04-18T12:47:49.207Z,59.75
2023-04-18T12:50:18.555Z,59.82
2023-04-18T12:52:46.502Z,60.60
2023-04-18T12:55:15.306Z,60.04
2023-04-18T12:57:43.433Z,60.38
2023-04-18T13:00:12.050Z,60.51
2023-04-18T13:02:41.529Z,60.03
2023-04-18T13:05:11.829Z,61.34
2023-04-18T13:07:39.593Z,60.25
2023-04-18T13:10:08.072Z,59.70
2023-04-18T13:12:36.670Z,60.67
2023-04-18T13:15:04.381Z,57.73
2023-04-18T13:17:31.597Z,57.91
2023-04-18T13:19:58.811Z,61.34
2023-04-18T13:22:26.226Z,63.99
2023-04-18T13:24:53.402Z,65.27
2023-04-18T13:27:20.650Z,65.65
2023-04-18T13:29:49.343Z,65.36
2023-04-18T13:32:16.662Z,65.62
2023-04-18T13:34:45.625Z,66.00
2023-04-18T13:37:13.051Z,64.78
2023-04-18T13:39:40.457Z,64.47
2023-04-18T13:42:07.869Z,63.53
2023-04-18T13:44:36.063Z,62.73
2023-04-18T13:47:05.851Z,61.92
2023-04-18T13:49:33.838Z,59.10
2023-04-18T13:52:01.205Z,57.30
2023-04-18T13:54:30.701Z,58.27
2023-04-18T13:56:59.931Z,58.01
2023-04-18T13:59:27.440Z,57.12
2023-04-18T14:01:55.659Z,57.65
2023-04-18T14:04:24.465Z,59.09
2023-04-18T14:06:51.878Z,59.25
2023-04-18T14:09:19.125Z,59.39
2023-04-18T14:11:46.344Z,58.65
2023-04-18T14:14:13.536Z,60.74
2023-04-18T14:16:40.801Z,61.92
2023-04-18T14:19:08.043Z,61.39
2023-04-18T14:21:36.589Z,62.39
2023-04-18T14:24:05.572Z,63.58
2023-04-18T14:26:32.747Z,62.47
2023-04-18T14:28:59.961Z,63.45
2023-04-18T14:31:27.190Z,62.48
2023-04-18T14:33:54.442Z,62.93
2023-04-18T14:36:21.650Z,62.84
2023-04-18T14:38:50.471Z,62.34
2023-04-18T14:41:17.680Z,62.60
2023-04-18T14:43:44.903Z,63.18
2023-04-18T14:46:12.271Z,63.63
2023-04-18T14:48:39.532Z,64.75
2023-04-18T14:51:06.839Z,64.14
2023-04-18T14:53:34.224Z,64.14
2023-04-18T14:56:03.026Z,64.66
2023-04-18T14:58:30.331Z,63.67
2023-04-18T15:00:57.667Z,64.11
2023-04-18T15:03:24.976Z,63.87
2023-04-18T15:05:52.335Z,64.02
2023-04-18T15:08:19.556Z,63.85
2023-04-18T15:10:46.766Z,63.78
2023-04-18T15:13:15.299Z,63.55
2023-04-18T15:15:42.476Z,63.43
2023-04-18T15:18:09.749Z,64.79
2023-04-18T15:20:37.337Z,64.90
2023-04-18T15:23:04.606Z,64.67
2023-04-18T15:25:31.788Z,64.15
2023-04-18T15:27:58.989Z,64.95
2023-04-18T15:30:27.557Z,64.89
2023-04-18T15:32:54.812Z,65.82
2023-04-18T15:35:22.028Z,66.80
2023-04-18T15:37:49.329Z,66.64
2023-04-18T15:40:16.719Z,66.77
2023-04-18T15:42:44.299Z,66.84
2023-04-18T15:45:12.137Z,66.79
2023-04-18T15:47:40.894Z,67.55
2023-04-18T15:50:08.993Z,67.25
2023-04-18T15:52:36.270Z,67.02
2023-04-18T15:55:04.108Z,67.41
2023-04-18T15:57:31.691Z,67.38
2023-04-18T15:59:59.041Z,67.77
2023-04-18T16:02:26.492Z,68.22
2023-04-18T16:04:55.165Z,68.87
2023-04-18T16:07:22.474Z,68.70
2023-04-18T16:09:49.732Z,69.01
2023-04-18T16:12:16.987Z,69.16
2023-04-18T16:14:47.182Z,69.68
2023-04-18T16:17:14.511Z,69.98
2023-04-18T16:19:41.666Z,70.74
2023-04-18T16:22:10.530Z,70.98
2023-04-18T16:24:38.826Z,70.84
2023-04-18T16:27:06.820Z,71.16
2023-04-18T16:29:34.200Z,71.40
2023-04-18T16:32:01.476Z,71.54
2023-04-18T16:34:28.847Z,71.78
2023-04-18T16:36:56.082Z,72.06
2023-04-18T16:39:24.780Z,71.86
2023-04-18T16:41:52.240Z,71.86
2023-04-18T16:44:19.435Z,72.27
2023-04-18T16:46:46.851Z,72.47
2023-04-18T16:49:14.083Z,73.13
2023-04-18T16:51:42.053Z,73.10
2023-04-18T16:54:09.572Z,73.71
2023-04-18T16:56:38.908Z,73.92
2023-04-18T16:59:06.443Z,74.29
2023-04-18T17:01:33.658Z,74.25
2023-04-18T17:04:01.952Z,74.83
2023-04-18T17:06:31.243Z,74.69
2023-04-18T17:08:58.943Z,74.68
2023-04-18T17:11:26.236Z,74.38
2023-04-18T17:13:54.857Z,74.55
2023-04-18T17:16:22.290Z,74.56
2023-04-18T17:18:49.506Z,74.72
2023-04-18T17:21:16.730Z,74.92
2023-04-18T17:23:44.160Z,74.93
2023-04-18T17:26:11.516Z,75.05
2023-04-18T17:28:38.936Z,75.39
2023-04-18T17:31:07.481Z,75.45
2023-04-18T17:33:34.783Z,75.80
2023-04-18T17:36:02.916Z,75.69
2023-04-18T17:38:31.485Z,75.98
2023-04-18T17:40:59.412Z,75.96
2023-04-18T17:43:26.945Z,76.22
2023-04-18T17:45:55.556Z,76.13
2023-04-18T17:48:24.257Z,76.58
2023-04-18T17:50:51.516Z,76.46
2023-04-18T17:53:18.677Z,76.22
2023-04-18T17:55:45.942Z,76.22
2023-04-18T17:58:13.184Z,76.44
2023-04-18T18:00:40.478Z,76.16
2023-04-18T18:03:07.843Z,76.31
2023-04-18T18:05:36.814Z,76.57
2023-04-18T18:08:04.511Z,76.58
2023-04-18T18:10:32.203Z,76.78
2023-04-18T18:12:59.475Z,76.91
2023-04-18T18:15:26.725Z,76.81
2023-04-18T18:17:54.080Z,76.83
2023-04-18T18:20:21.622Z,76.61
2023-04-18T18:22:50.506Z,76.91
2023-04-18T18:25:17.755Z,77.03
2023-04-18T18:27:45.079Z,77.16
2023-04-18T18:30:12.965Z,77.20
2023-04-18T18:32:40.242Z,77.22
2023-04-18T18:35:08.294Z,77.10
2023-04-18T18:37:35.516Z,77.26
2023-04-18T18:40:05.062Z,77.44
2023-04-18T18:42:32.283Z,77.39
2023-04-18T18:44:59.525Z,77.44
2023-04-18T18:47:26.843Z,77.70
2023-04-18T18:49:54.089Z,77.89
2023-04-18T18:52:21.216Z,77.97
2023-04-18T18:54:48.575Z,77.86
2023-04-18T18:57:17.186Z,77.77
2023-04-18T18:59:44.491Z,78.03
2023-04-18T19:02:11.881Z,78.19
2023-04-18T19:04:39.314Z,78.10
2023-04-18T19:07:06.563Z,78.24
2023-04-18T19:09:33.816Z,78.41
2023-04-18T19:12:01.060Z,78.44
2023-04-18T19:14:29.742Z,78.98
2023-04-18T19:16:57.031Z,79.13
2023-04-18T19:19:24.617Z,78.76
2023-04-18T19:21:51.952Z,78.82
2023-04-18T19:24:19.272Z,79.08
2023-04-18T19:26:46.516Z,79.12
2023-04-18T19:29:13.961Z,79.15
2023-04-18T19:31:43.007Z,79.33
2023-04-18T19:34:10.370Z,78.78
2023-04-18T19:36:37.778Z,79.00
2023-04-18T19:39:05.057Z,79.06
2023-04-18T19:41:32.519Z,79.30
2023-04-18T19:43:59.787Z,79.71
2023-04-18T19:46:27.090Z,79.61
2023-04-18T19:48:55.898Z,79.74
2023-04-18T19:51:23.257Z,79.82
2023-04-18T19:53:50.499Z,79.60
2023-04-18T19:56:17.703Z,79.83
2023-04-18T19:58:45.212Z,79.83
2023-04-18T20:01:13.008Z,80.08
2023-04-18T20:03:40.609Z,79.96
2023-04-18T20:06:09.438Z,80.16
2023-04-18T20:08:40.519Z,79.92
2023-04-18T20:11:08.893Z,80.26
2023-04-18T20:13:36.445Z,80.09
2023-04-18T20:16:03.945Z,80.28
2023-04-18T20:18:31.213Z,80.22
2023-04-18T20:20:58.895Z,80.36
2023-04-18T20:23:27.627Z,80.34
2023-04-18T20:25:54.908Z,80.59
2023-04-18T20:28:22.118Z,80.48
2023-04-18T20:30:49.431Z,80.92
2023-04-18T20:33:16.756Z,80.60
2023-04-18T20:35:44.415Z,80.77
2023-04-18T20:38:11.650Z,80.90
2023-04-18T20:40:40.620Z,81.25
2023-04-18T20:43:07.986Z,81.14
2023-04-18T20:45:35.486Z,81.36
2023-04-18T20:48:02.800Z,81.54
2023-04-18T20:50:30.125Z,81.39
2023-04-18T20:52:58.637Z,81.49
2023-04-18T20:55:25.915Z,81.48
2023-04-18T20:57:54.520Z,81.99
2023-04-18T21:00:21.961Z,81.81
2023-04-18T21:02:49.337Z,81.81
2023-04-18T21:05:16.680Z,81.96
2023-04-18T21:07:45.682Z,82.06
2023-04-18T21:10:13.149Z,81.53
2023-04-18T21:12:40.382Z,81.44
2023-04-18T21:15:10.069Z,81.37
2023-04-18T21:17:37.293Z,80.97
2023-04-18T21:20:05.359Z,80.72
2023-04-18T21:22:32.637Z,81.26
2023-04-18T21:24:59.821Z,79.95
2023-04-18T21:27:27.138Z,78.82
2023-04-18T21:29:54.307Z,78.79
2023-04-18T21:32:22.973Z,78.57
2023-04-18T21:34:50.241Z,78.39
2023-04-18T21:37:17.520Z,78.33
2023-04-18T21:39:44.789Z,78.22
2023-04-18T21:42:12.008Z,77.84
2023-04-18T21:44:39.184Z,77.78
2023-04-18T21:47:06.390Z,78.12
2023-04-18T21:49:34.922Z,78.06
2023-04-18T21:52:02.101Z,78.32
2023-04-18T21:54:29.354Z,78.13
2023-04-18T21:56:56.497Z,78.14
2023-04-18T21:59:24.412Z,78.04
2023-04-18T22:01:51.577Z,78.15
2023-04-18T22:04:19.158Z,77.72
2023-04-18T22:06:48.181Z,78.07
2023-04-18T22:09:15.332Z,78.21
2023-04-18T22:11:42.532Z,78.61
2023-04-18T22:14:09.715Z,78.04
2023-04-18T22:16:36.925Z,78.61
2023-04-18T22:19:04.102Z,78.68
2023-04-18T22:21:31.348Z,78.63
2023-04-18T22:24:00.009Z,78.69
2023-04-18T22:26:27.178Z,79.18
2023-04-18T22:28:54.442Z,79.21
2023-04-18T22:31:21.681Z,79.61
2023-04-18T22:33:48.955Z,79.71
2023-04-18T22:36:16.190Z,79.98
2023-04-18T22:38:43.482Z,80.35
2023-04-18T22:41:12.017Z,80.56
2023-04-18T22:43:39.194Z,80.75
2023-04-18T22:46:06.442Z,80.99
2023-04-18T22:48:33.744Z,80.77
2023-04-18T22:51:02.104Z,81.04
2023-04-18T22:53:29.254Z,81.16
2023-04-18T22:55:56.839Z,81.05
2023-04-18T22:58:25.386Z,81.08
2023-04-18T23:00:52.627Z,81.43
2023-04-18T23:03:20.125Z,81.32
2023-04-18T23:05:47.331Z,81.70
2023-04-18T23:08:14.475Z,81.84
2023-04-18T23:10:41.730Z,82.11
2023-04-18T23:13:08.926Z,82.29
2023-04-18T23:15:37.485Z,82.37
2023-04-18T23:18:04.731Z,82.60
2023-04-18T23:20:32.014Z,83.03
2023-04-18T23:22:59.245Z,83.00
2023-04-18T23:25:26.525Z,83.36
2023-04-18T23:27:53.730Z,83.41
2023-04-18T23:30:20.920Z,83.57
2023-04-18T23:32:49.523Z,83.74
2023-04-18T23:35:17.037Z,83.70
2023-04-18T23:37:44.235Z,84.16
2023-04-18T23:40:11.490Z,84.62
2023-04-18T23:42:38.709Z,84.29
2023-04-18T23:45:06.706Z,84.25
2023-04-18T23:47:33.979Z,84.26
2023-04-18T23:50:02.725Z,84.32
2023-04-18T23:52:29.934Z,84.31
2023-04-18T23:54:59.285Z,84.30
2023-04-18T23:57:26.667Z,84.53
2023-04-18T23:59:53.884Z,84.87
